Valikko       Alkaa   X °F

Select another period ( hide this area )

Units Period Custom range Directly to
Metric English Both
Daily Weekly Monthly Yearly
use both date-selectors for a custom range
previous Day
With this date
Daily Summary for Monday 22 July 2024
Time Temp. ( °F ) Dew pt. ( °F ) Wind ( mph ) From Gust ( mph ) Pressure ( in ) Humid.( % ) Rainrate ( in )
High96.3 72.9 7.5 SW ( 433/1253 ) 11.8 29.78 64 -
Average88.9 67.1 2.9 West #112/266 5.2 29.76 49 -
Low81.9 61.7 -   0.0 29.74 35 -
Daily Tabular details for Monday 22 July 2024
Time Temp. ( °F ) Dew pt. ( °F ) Wind ( mph ) From Gust ( mph ) Pressure ( in ) Humid.( % ) Rainrate ( in )
00:04 88.3 64.4 2.5 West 3.7 29.75 45 -
00:09 88.2 64.8 1.9 West 3.7 29.75 46 -
00:14 88.0 64.6 1.2 West 3.1 29.75 46 -
00:19 87.6 64.9 1.9 West 3.7 29.75 47 -
00:24 87.4 64.8 1.9 West 3.7 29.75 47 -
00:29 87.4 65.3 1.9 West 3.7 29.75 48 -
00:34 87.3 65.1 1.2 West 3.1 29.75 48 -
00:39 87.3 65.1 0.6 West 1.9 29.75 48 -
00:44 87.3 65.1   Calm 1.2 29.75 48 -
00:49 87.3 65.7 1.9 West 2.5 29.75 49 -
00:54 87.3 65.7 1.2 West 2.5 29.75 49 -
00:59 87.1 64.9   Calm 1.9 29.75 48 -
01:04 87.3 65.7 0.6 West 1.2 29.75 49 -
01:09 87.3 65.7 0.6 West 1.2 29.75 49 -
01:14 87.1 65.7   Calm 1.2 29.75 49 -
01:19 87.1 65.7 1.2 West 2.5 29.75 49 -
01:24 87.1 66.0 1.2 West 2.5 29.75 50 -
01:29 86.7 65.8 1.2 West 1.9 29.75 50 -
01:34 86.7 65.8 0.6 West 1.2 29.75 50 -
01:39 86.5 65.7 1.2 West 1.2 29.75 50 -
01:44 86.5 65.7 1.9 West 3.1 29.75 50 -
01:49 86.5 65.7 1.2 West 3.7 29.75 50 -
01:54 86.5 65.7 0.6 West 2.5 29.75 50 -
01:59 86.4 64.9 1.2 West 2.5 29.75 49 -
02:04 86.4 64.2 1.2 West 2.5 29.75 48 -
02:09 86.4 64.9 1.2 West 2.5 29.75 49 -
02:14 86.4 64.9 1.9 West 3.7 29.75 49 -
02:19 86.2 64.8 1.2 West 3.1 29.75 49 -
02:24 85.8 64.6 1.2 West 2.5 29.75 49 -
02:29 85.6 64.9 0.6 West 1.2 29.75 50 -
02:34 85.6 64.8 0.6 West 1.2 29.74 50 -
02:39 85.5 64.0 0.6 West 1.2 29.74 49 -
02:44 85.5 64.0   Calm 1.2 29.74 49 -
02:49 85.3 64.6 0.6 West 1.2 29.74 50 -
02:54 85.3 64.6   Calm 1.2 29.74 50 -
02:59 85.3 64.6 1.2 West 2.5 29.74 50 -
03:04 85.1 64.4 1.2 West 2.5 29.74 50 -
03:09 84.9 64.2 1.2 West 2.5 29.74 50 -
03:14 84.6 63.3 1.2 West 3.7 29.74 49 -
03:19 84.4 63.1 0.6 West 3.1 29.74 49 -
03:24 84.4 63.1 0.6 West 2.5 29.74 49 -
03:29 84.4 63.1 1.9 West 2.5 29.74 49 -
03:34 84.2 63.0 1.2 West 2.5 29.74 49 -
03:39 84.0 63.0 0.6 West 1.2 29.74 49 -
03:44 84.0 62.8 1.2 West 2.5 29.74 49 -
03:49 83.8 62.8 0.6 West 2.5 29.74 49 -
03:54 83.8 62.6 0.6 West 1.9 29.74 49 -
03:59 83.8 62.6 0.6 West 1.2 29.74 49 -
04:04 83.7 62.4 1.9 West 2.5 29.74 49 -
04:09 83.5 62.4 1.2 West 2.5 29.74 49 -
04:14 83.3 62.1 1.2 West 2.5 29.74 49 -
04:19 83.3 62.1 1.2 West 1.9 29.74 49 -
04:24 83.5 62.1 0.6 West 1.2 29.74 49 -
04:29 83.5 61.7 0.6 West 1.2 29.74 48 -
04:34 83.5 61.7 1.2 West 2.5 29.74 48 -
04:39 83.5 62.2 0.6 West 2.5 29.74 49 -
04:44 83.5 62.2 1.2 West 2.5 29.74 49 -
04:49 83.3 62.1 1.2 West 2.5 29.74 49 -
04:54 83.1 62.1   Calm 1.9 29.74 49 -
04:59 83.1 62.1   Calm   29.74 49 -
05:04 83.3 64.9 0.6 West 1.2 29.74 54 -
05:09 83.5 64.9 1.2 West 1.2 29.74 54 -
05:14 83.3 63.9 0.6 West 1.2 29.74 52 -
05:19 83.1 62.6 0.6 West 1.2 29.74 50 -
05:24 82.9 63.0 0.6 West 1.2 29.74 51 -
05:29 82.8 62.8 1.2 West 1.2 29.74 51 -
05:34 82.8 62.8 0.6 West 2.5 29.74 51 -
05:39 82.6 62.6 1.2 West 2.5 29.74 51 -
05:44 82.2 62.4 1.9 West 3.7 29.74 51 -
05:49 82.2 62.2 1.2 West 3.7 29.74 51 -
05:54 81.9 62.4 0.6 West 1.9 29.74 52 -
05:59 81.9 63.1 0.6 West 2.5 29.74 53 -
06:04 82.0 64.2 1.2 West 2.5 29.74 55 -
06:09 82.0 64.8 1.2 West 1.9 29.74 56 -
06:14 82.2 65.5 0.6 West 1.2 29.74 57 -
06:19 82.2 65.5   Calm 1.2 29.74 57 -
06:24 82.2 64.9 0.6 West 1.2 29.74 56 -
06:29 82.2 63.5   Calm 1.2 29.74 53 -
06:34 82.2 63.5   Calm 1.2 29.74 53 -
06:39 82.2 63.9 1.2 West 1.9 29.74 54 -
06:44 82.0 63.9 1.2 West 3.7 29.74 54 -
06:49 81.9 63.1 1.2 West 3.1 29.75 53 -
06:54 81.9 63.1 1.9 West 3.7 29.75 53 -
06:59 81.9 63.5 1.9 West 3.7 29.75 54 -
07:04 81.9 64.0 0.6 West 2.5 29.75 55 -
07:09 82.0 64.2 1.2 West 2.5 29.75 55 -
07:14 82.2 64.9 1.2 West 2.5 29.75 56 -
07:19 82.6 65.1   Calm 1.2 29.75 56 -
07:24 82.9 66.6 0.6 West 1.2 29.75 58 -
07:29 83.3 67.3   Calm 1.2 29.75 59 -
07:34 83.7 66.9   Calm 1.2 29.75 58 -
07:39 84.0 68.5 0.6 West 2.5 29.75 60 -
07:44 84.0 68.7 1.2 West 2.5 29.75 60 -
07:49 84.0 68.7 2.5 West 3.7 29.75 60 -
07:54 84.0 69.1 2.5 West 3.7 29.76 61 -
07:59 83.8 69.4 3.1 West 3.7 29.76 62 -
08:04 84.0 70.5 3.1 West 3.7 29.76 64 -
08:09 84.0 70.5 3.7 WNW 6.2 29.76 64 -
08:14 83.8 70.3 3.1 WNW 6.2 29.76 64 -
08:19 84.0 70.3 3.1 WNW 3.7 29.77 64 -
08:24 84.4 69.6 1.2 WNW 3.7 29.77 62 -
08:29 84.7 69.3 1.2 WNW 2.5 29.77 61 -
08:34 84.7 69.3 1.9 WNW 3.7 29.77 60 -
08:39 84.9 68.5 1.9 WNW 3.1 29.77 58 -
08:44 85.3 69.6 2.5 WNW 3.7 29.77 60 -
08:49 85.3 70.3 1.9 WNW 3.7 29.77 61 -
08:54 85.6 71.2 1.9 West 3.7 29.77 62 -
08:59 85.8 71.2 2.5 West 3.7 29.77 62 -
09:04 85.8 71.4 2.5 West 3.7 29.77 62 -
09:09 85.8 71.2 3.7 SW 6.2 29.77 62 -
09:14 85.8 70.9 3.7 SSW 6.2 29.77 61 -
09:19 85.8 70.9 3.1 SSW 5.0 29.77 61 -
09:24 86.2 70.5 3.1 SSW 3.7 29.77 60 -
09:29 86.2 70.2 2.5 SW 3.7 29.77 59 -
09:34 86.4 70.3 2.5 SW 3.7 29.77 59 -
09:39 86.5 70.5 2.5 SW 3.7 29.77 59 -
09:44 86.9 70.9 2.5 SW 3.7 29.77 59 -
09:49 87.1 71.4 1.9 SW 3.7 29.77 60 -
09:54 87.4 71.8 1.9 SW 3.7 29.77 60 -
09:59 87.6 72.0 3.1 SW 5.0 29.77 60 -
10:04 87.6 72.7 2.5 SW 5.0 29.77 61 -
10:09 88.0 72.9 2.5 SW 3.7 29.77 61 -
10:14 88.2 72.0 2.5 SW 3.7 29.77 59 -
10:19 88.5 71.6 2.5 SW 3.7 29.77 58 -
10:24 88.9 71.1 3.1 SW 5.0 29.77 56 -
10:29 89.1 70.7 3.1 SW 5.0 29.78 55 -
10:34 89.4 71.1 3.7 SW 5.0 29.78 55 -
10:39 89.8 72.5 2.5 SW 5.0 29.78 57 -
10:44 90.0 72.7 2.5 SW 5.0 29.78 57 -
10:49 90.0 71.6 3.7 SW 5.0 29.78 55 -
10:54 90.1 71.2 3.7 SW 6.2 29.78 54 -
10:59 90.1 70.7 4.3 SW 6.2 29.78 53 -
11:04 90.1 70.7 3.1 SW 6.2 29.78 53 -
11:09 90.3 70.7 3.7 SW 6.2 29.78 53 -
11:14 90.3 69.8 3.7 SW 6.2 29.78 51 -
11:19 90.9 71.2 3.1 WSW 5.0 29.78 53 -
11:24 90.9 70.7 4.3 West 6.8 29.78 52 -
11:29 90.5 71.1 3.1 WSW 6.8 29.78 53 -
11:34 90.5 71.1 3.7 SW 6.2 29.78 53 -
11:39 90.3 70.9 3.1 SW 6.2 29.78 53 -
11:44 90.3 70.9 4.3 WSW 6.8 29.78 53 -
11:49 90.3 70.3 3.1 West 6.8 29.78 52 -
11:54 90.7 70.0 5.0 WNW 6.8 29.78 51 -
11:59 90.7 70.2 4.3 WSW 6.8 29.78 51 -
12:04 91.0 68.9 3.7 SW 6.2 29.78 49 -
12:09 91.4 69.1 3.1 SW 6.2 29.78 48 -
12:14 91.9 68.9 4.3 WSW 6.8 29.78 48 -
12:19 91.9 67.5 5.0 West 6.8 29.78 45 -
12:24 91.9 68.2 3.1 WSW 6.8 29.78 46 -
12:29 92.3 68.4 3.1 WSW 5.0 29.78 46 -
12:34 92.7 68.2 3.7 SW 5.0 29.78 45 -
12:39 92.7 68.4 5.6 West 8.1 29.78 46 -
12:44 92.1 67.8 3.7 West 8.1 29.78 45 -
12:49 92.1 67.1 5.0 West 6.8 29.78 44 -
12:54 91.9 66.4 3.7 West 6.8 29.78 43 -
12:59 92.1 67.1 3.7 SW 6.2 29.78 44 -
13:04 92.1 65.8 4.3 SW 5.0 29.78 42 -
13:09 92.5 66.0 3.1 SW 5.0 29.78 42 -
13:14 92.7 66.0 3.7 SW 6.2 29.78 42 -
13:19 92.7 65.7 4.3 SW 6.2 29.78 41 -
13:24 92.7 65.7 3.7 WSW 6.2 29.78 41 -
13:29 93.0 65.8 3.7 SW 6.2 29.77 41 -
13:34 93.4 65.8 3.7 WSW 6.2 29.77 41 -
13:39 93.6 64.2 4.3 West 6.8 29.77 38 -
13:44 94.3 64.4 2.5 West 6.8 29.77 38 -
13:49 94.6 64.0 3.7 SW 6.8 29.77 37 -
13:54 94.8 63.0 5.0 SW 8.1 29.76 35 -
13:59 94.8 63.9 5.0 SW 9.3 29.77 36 -
14:04 95.5 63.5 2.5 WSW 9.3 29.76 35 -
14:09 96.3 64.0 3.1 SW 5.0 29.76 35 -
14:14 96.3 64.9 3.7 SW 6.2 29.76 36 -
14:19 96.1 65.3 3.7 SW 6.2 29.76 37 -
14:24 95.4 66.2 6.2 SW 8.1 29.77 39 -
14:29 94.5 67.5 4.3 WSW 8.1 29.76 42 -
14:34 93.9 67.3 3.7 WSW 6.8 29.77 42 -
14:39 93.7 65.8 4.3 West 6.8 29.76 40 -
14:44 93.9 65.3 3.7 West 6.8 29.77 39 -
14:49 94.3 66.2 3.7 West 6.8 29.77 40 -
14:54 94.3 67.6 3.7 WSW 6.8 29.77 42 -
14:59 94.5 67.6 6.2 WNW 9.3 29.77 42 -
15:04 93.7 67.6 5.6 WNW 9.3 29.76 43 -
15:09 93.6 68.0 5.0 WSW 8.1 29.77 44 -
15:14 93.2 68.7 4.3 West 6.8 29.76 45 -
15:19 93.6 68.4 3.7 West 8.1 29.76 44 -
15:24 93.7 69.3 3.7 West 8.1 29.76 45 -
15:29 93.6 69.6 4.3 WSW 6.2 29.76 46 -
15:34 93.6 68.0 3.7 West 6.2 29.76 44 -
15:39 93.9 68.0 4.3 SW 8.1 29.76 43 -
15:44 93.9 68.0 6.8 WSW 11.8 29.76 43 -
15:49 93.4 69.1 6.2 West 11.8 29.76 46 -
15:54 93.0 69.1 6.2 WNW 10.6 29.76 46 -
15:59 93.0 68.5 6.2 SW 9.9 29.76 45 -
16:04 92.7 68.2 3.7 SW 6.8 29.76 45 -
16:09 92.8 68.4 5.0 SW 9.3 29.76 45 -
16:14 93.0 69.8 5.0 West 9.3 29.76 47 -
16:19 92.8 70.7 5.6 West 9.3 29.76 49 -
16:24 92.8 70.7 4.3 WSW 9.3 29.76 49 -
16:29 93.6 70.2 3.7 West 9.3 29.76 47 -
16:34 93.9 69.6 5.0 WSW 8.1 29.76 46 -
16:39 93.9 69.3 5.6 WSW 8.1 29.76 45 -
16:44 93.7 68.5 6.8 West 10.6 29.76 44 -
16:49 93.7 69.3 5.0 WSW 9.9 29.76 45 -
16:54 93.9 69.3 5.6 West 8.1 29.76 45 -
16:59 94.3 68.9 4.3 WSW 8.1 29.76 44 -
17:04 94.3 68.9 5.0 SW 8.1 29.76 44 -
17:09 94.3 68.4 5.0 SW 9.3 29.76 43 -
17:14 94.1 68.2 4.3 SW 9.3 29.76 43 -
17:19 94.1 68.2 5.0 SW 8.1 29.76 43 -
17:24 93.9 69.3 5.0 WSW 8.1 29.76 45 -
17:29 93.7 69.3 5.0 WSW 8.1 29.76 45 -
17:34 94.1 69.3 3.7 West 6.8 29.76 45 -
17:39 94.1 68.9 3.7 West 6.8 29.76 44 -
17:44 94.5 68.9 3.1 WSW 6.8 29.76 44 -
17:49 94.6 69.3 4.3 SW 6.8 29.76 44 -
17:54 94.5 70.3 4.3 West 6.8 29.76 46 -
17:59 94.3 70.5 5.0 SW 11.8 29.76 47 -
18:04 93.7 70.5 4.3 WSW 11.8 29.76 47 -
18:09 93.7 69.8 3.7 SSW 6.2 29.76 46 -
18:14 93.7 69.8 4.3 WSW 6.8 29.76 46 -
18:19 93.6 69.6 5.6 SSE 9.3 29.76 46 -
18:24 93.4 68.9 3.7 SW 9.3 29.76 45 -
18:29 93.6 69.1 6.8 SW 9.3 29.76 45 -
18:34 93.4 69.3 6.2 SSW 9.3 29.76 46 -
18:39 92.8 69.1 4.3 South 6.8 29.76 46 -
18:44 92.8 69.1 7.5 SSW 11.8 29.76 46 -
18:49 92.8 69.1 6.2 South 11.8 29.76 46 -
18:54 92.5 68.5 5.0 South 8.1 29.76 46 -
18:59 92.5 68.2 3.7 SSW 6.8 29.76 45 -
19:04 92.5 68.2 4.3 SSW 6.8 29.76 45 -
19:09 92.7 68.2 5.0 SW 9.3 29.76 45 -
19:14 92.7 67.5 3.7 South 9.3 29.76 44 -
19:19 92.8 67.8 2.5 SSW 6.2 29.76 44 -
19:24 93.0 67.8 3.7 SW 6.8 29.76 44 -
19:29 92.8 67.8 4.3 SW 6.8 29.76 44 -
19:34 92.7 67.6 4.3 WSW 6.8 29.76 44 -
19:39 92.7 67.5 4.3 SSW 6.8 29.76 44 -
19:44 92.5 67.5 5.6 SW 6.8 29.76 44 -
19:49 92.3 67.5 5.0 SW 6.8 29.76 45 -
19:54 91.8 67.5 3.7 SW 6.8 29.76 45 -
19:59 91.8 67.3 3.7 SW 6.2 29.76 45 -
20:04 91.6 67.6 4.3 SW 6.2 29.76 46 -
20:09 91.2 67.6 5.6 SW 9.3 29.76 46 -
20:14 91.0 67.3 5.6 SW 9.3 29.76 46 -
20:19 90.9 67.3 4.3 SW 6.8 29.76 46 -
20:24 90.7 67.5 4.3 SSW 6.2 29.76 47 -
20:29 90.3 67.3 4.3 SW 6.2 29.76 47 -
20:34 90.3 67.3 3.7 South 6.2 29.76 47 -
20:39 90.1 66.6 3.7 SSW 6.2 29.76 46 -
20:44 90.1 67.1 4.3 SSW 6.8 29.77 47 -
20:49 90.0 66.9 3.1 SSW 6.8 29.77 47 -
20:54 89.8 66.9 4.3 SSW 6.2 29.76 47 -
20:59 89.8 67.3 4.3 SSW 6.2 29.76 48 -
21:04 89.4 67.3 3.1 SW 5.0 29.76 48 -
21:09 89.4 67.1 3.7 SSW 5.0 29.76 48 -
21:14 89.2 67.1 3.1 SSW 5.0 29.76 48 -
21:19 89.2 66.9 4.3 SSW 6.2 29.76 48 -
21:24 89.2 66.9 5.0 SSW 6.2 29.76 48 -
21:29 89.4 67.1 3.7 SSW 6.2 29.76 48 -
21:34 89.4 67.1 3.7 SSW 6.2 29.76 48 -
21:39 89.2 66.9 3.7 SW 6.2 29.77 48 -
21:44 89.2 66.9 5.0 SW 6.8 29.77 48 -
21:49 89.2 67.5 5.0 SW 6.8 29.77 49 -
21:54 89.1 68.5 5.6 SSW 8.1 29.78 51 -
21:59 89.1 68.5 5.0 SSW 8.1 29.78 51 -
22:04 88.7 68.2 4.3 SSW 9.3 29.78 51 -
22:05 88.5 67.5 1.9 SSW 9.3 29.78 50 -

Download your copy of this data-set  from WeatherUnderground

Our weather-data as stored at Weather Underground


MeteoPatras.Eu 2013 - 2024